sensor_id;sensor_type;location;lat;lon;timestamp;P1;durP1;ratioP1;P2;durP2;ratioP2
6547;SDS011;3307;52.416;16.862;2023-02-15T00:01:49;157.27;;;111.30;;
6547;SDS011;3307;52.416;16.862;2023-02-15T00:04:16;149.02;;;110.90;;
6547;SDS011;3307;52.416;16.862;2023-02-15T00:06:43;144.25;;;108.40;;
6547;SDS011;3307;52.416;16.862;2023-02-15T00:09:09;151.13;;;117.63;;
6547;SDS011;3307;52.416;16.862;2023-02-15T00:11:35;163.52;;;118.57;;
6547;SDS011;3307;52.416;16.862;2023-02-15T00:16:44;164.50;;;121.70;;
6547;SDS011;3307;52.416;16.862;2023-02-15T00:19:10;174.25;;;127.93;;
6547;SDS011;3307;52.416;16.862;2023-02-15T00:21:37;173.93;;;128.57;;
6547;SDS011;3307;52.416;16.862;2023-02-15T00:24:04;178.88;;;131.57;;
6547;SDS011;3307;52.416;16.862;2023-02-15T00:26:31;165.60;;;119.70;;
6547;SDS011;3307;52.416;16.862;2023-02-15T00:28:57;159.07;;;114.43;;
6547;SDS011;3307;52.416;16.862;2023-02-15T00:31:26;157.98;;;118.97;;
6547;SDS011;3307;52.416;16.862;2023-02-15T00:33:56;152.80;;;113.57;;
6547;SDS011;3307;52.416;16.862;2023-02-15T00:36:26;161.32;;;112.95;;
6547;SDS011;3307;52.416;16.862;2023-02-15T00:38:52;155.63;;;114.20;;
6547;SDS011;3307;52.416;16.862;2023-02-15T00:41:17;146.15;;;108.38;;
6547;SDS011;3307;52.416;16.862;2023-02-15T00:43:42;154.03;;;108.30;;
6547;SDS011;3307;52.416;16.862;2023-02-15T00:46:08;149.70;;;110.50;;
6547;SDS011;3307;52.416;16.862;2023-02-15T00:48:33;156.10;;;117.65;;
6547;SDS011;3307;52.416;16.862;2023-02-15T00:50:59;166.47;;;124.43;;
6547;SDS011;3307;52.416;16.862;2023-02-15T00:53:25;157.43;;;114.75;;
6547;SDS011;3307;52.416;16.862;2023-02-15T00:55:52;154.35;;;112.00;;
6547;SDS011;3307;52.416;16.862;2023-02-15T00:58:17;153.38;;;112.75;;
6547;SDS011;3307;52.416;16.862;2023-02-15T01:00:43;147.23;;;109.73;;
6547;SDS011;3307;52.416;16.862;2023-02-15T01:03:10;149.25;;;108.07;;
6547;SDS011;3307;52.416;16.862;2023-02-15T01:05:35;145.68;;;110.22;;
6547;SDS011;3307;52.416;16.862;2023-02-15T01:08:01;149.23;;;109.17;;
6547;SDS011;3307;52.416;16.862;2023-02-15T01:10:27;150.30;;;110.73;;
6547;SDS011;3307;52.416;16.862;2023-02-15T01:12:53;143.07;;;106.63;;
6547;SDS011;3307;52.416;16.862;2023-02-15T01:15:19;128.88;;;95.65;;
6547;SDS011;3307;52.416;16.862;2023-02-15T01:17:45;139.40;;;98.70;;
6547;SDS011;3307;52.416;16.862;2023-02-15T01:20:20;133.10;;;98.25;;
6547;SDS011;3307;52.416;16.862;2023-02-15T01:22:47;151.45;;;110.70;;
6547;SDS011;3307;52.416;16.862;2023-02-15T01:25:15;152.88;;;110.38;;
6547;SDS011;3307;52.416;16.862;2023-02-15T01:27:41;143.35;;;106.05;;
6547;SDS011;3307;52.416;16.862;2023-02-15T01:30:06;138.30;;;105.00;;
6547;SDS011;3307;52.416;16.862;2023-02-15T01:32:35;144.95;;;102.82;;
6547;SDS011;3307;52.416;16.862;2023-02-15T01:35:01;139.17;;;102.97;;
6547;SDS011;3307;52.416;16.862;2023-02-15T01:37:26;130.82;;;99.00;;
6547;SDS011;3307;52.416;16.862;2023-02-15T01:39:52;135.20;;;96.87;;
6547;SDS011;3307;52.416;16.862;2023-02-15T01:42:22;139.20;;;97.60;;
6547;SDS011;3307;52.416;16.862;2023-02-15T01:50:13;124.47;;;92.00;;
6547;SDS011;3307;52.416;16.862;2023-02-15T01:52:40;130.32;;;93.15;;
6547;SDS011;3307;52.416;16.862;2023-02-15T01:55:14;129.93;;;98.03;;
6547;SDS011;3307;52.416;16.862;2023-02-15T01:57:40;140.93;;;105.57;;
6547;SDS011;3307;52.416;16.862;2023-02-15T02:00:07;134.50;;;97.50;;
6547;SDS011;3307;52.416;16.862;2023-02-15T02:02:33;134.40;;;98.65;;
6547;SDS011;3307;52.416;16.862;2023-02-15T02:05:00;140.90;;;101.50;;
6547;SDS011;3307;52.416;16.862;2023-02-15T02:07:32;146.43;;;103.32;;
6547;SDS011;3307;52.416;16.862;2023-02-15T02:09:59;142.68;;;101.03;;
6547;SDS011;3307;52.416;16.862;2023-02-15T02:12:26;136.00;;;97.78;;
6547;SDS011;3307;52.416;16.862;2023-02-15T02:14:51;141.20;;;101.87;;
6547;SDS011;3307;52.416;16.862;2023-02-15T02:26:31;124.18;;;94.28;;
6547;SDS011;3307;52.416;16.862;2023-02-15T02:32:28;148.27;;;102.95;;
6547;SDS011;3307;52.416;16.862;2023-02-15T02:38:12;142.80;;;107.95;;
6547;SDS011;3307;52.416;16.862;2023-02-15T02:43:38;139.88;;;96.78;;
6547;SDS011;3307;52.416;16.862;2023-02-15T02:46:13;140.85;;;101.45;;
6547;SDS011;3307;52.416;16.862;2023-02-15T02:48:43;135.07;;;97.53;;
6547;SDS011;3307;52.416;16.862;2023-02-15T02:51:09;132.73;;;96.20;;
6547;SDS011;3307;52.416;16.862;2023-02-15T02:53:34;129.93;;;95.43;;
6547;SDS011;3307;52.416;16.862;2023-02-15T02:56:05;148.10;;;105.00;;
6547;SDS011;3307;52.416;16.862;2023-02-15T02:58:39;152.68;;;109.45;;
6547;SDS011;3307;52.416;16.862;2023-02-15T03:04:04;148.48;;;104.95;;
6547;SDS011;3307;52.416;16.862;2023-02-15T03:06:54;166.63;;;120.10;;
6547;SDS011;3307;52.416;16.862;2023-02-15T03:11:59;156.55;;;112.38;;
6547;SDS011;3307;52.416;16.862;2023-02-15T03:14:25;157.00;;;115.72;;
6547;SDS011;3307;52.416;16.862;2023-02-15T03:16:51;165.53;;;117.50;;
6547;SDS011;3307;52.416;16.862;2023-02-15T03:22:18;169.82;;;121.00;;
6547;SDS011;3307;52.416;16.862;2023-02-15T03:27:20;157.82;;;114.55;;
6547;SDS011;3307;52.416;16.862;2023-02-15T03:29:50;148.85;;;108.78;;
6547;SDS011;3307;52.416;16.862;2023-02-15T03:32:18;161.25;;;113.40;;
6547;SDS011;3307;52.416;16.862;2023-02-15T03:34:44;151.98;;;107.28;;
6547;SDS011;3307;52.416;16.862;2023-02-15T03:37:19;149.57;;;103.17;;
6547;SDS011;3307;52.416;16.862;2023-02-15T03:43:37;134.93;;;94.10;;
6547;SDS011;3307;52.416;16.862;2023-02-15T03:46:17;133.98;;;94.82;;
6547;SDS011;3307;52.416;16.862;2023-02-15T03:48:52;137.85;;;96.65;;
6547;SDS011;3307;52.416;16.862;2023-02-15T03:51:24;130.70;;;94.40;;
6547;SDS011;3307;52.416;16.862;2023-02-15T03:53:58;123.43;;;86.57;;
6547;SDS011;3307;52.416;16.862;2023-02-15T03:56:25;127.57;;;91.13;;
6547;SDS011;3307;52.416;16.862;2023-02-15T03:58:51;123.77;;;83.83;;
6547;SDS011;3307;52.416;16.862;2023-02-15T04:01:45;111.30;;;79.30;;
6547;SDS011;3307;52.416;16.862;2023-02-15T04:04:25;112.75;;;79.95;;
6547;SDS011;3307;52.416;16.862;2023-02-15T04:06:53;114.18;;;79.15;;
6547;SDS011;3307;52.416;16.862;2023-02-15T04:09:18;108.10;;;78.60;;
6547;SDS011;3307;52.416;16.862;2023-02-15T04:12:02;108.70;;;74.38;;
6547;SDS011;3307;52.416;16.862;2023-02-15T04:14:28;111.13;;;79.00;;
6547;SDS011;3307;52.416;16.862;2023-02-15T04:17:12;114.72;;;83.22;;
6547;SDS011;3307;52.416;16.862;2023-02-15T04:19:37;113.47;;;79.88;;
6547;SDS011;3307;52.416;16.862;2023-02-15T04:22:21;116.90;;;81.97;;
6547;SDS011;3307;52.416;16.862;2023-02-15T04:25:06;104.85;;;77.55;;
6547;SDS011;3307;52.416;16.862;2023-02-15T04:27:34;110.45;;;81.15;;
6547;SDS011;3307;52.416;16.862;2023-02-15T04:30:00;113.43;;;79.60;;
6547;SDS011;3307;52.416;16.862;2023-02-15T04:32:26;119.43;;;83.47;;
6547;SDS011;3307;52.416;16.862;2023-02-15T04:34:52;115.53;;;82.60;;
6547;SDS011;3307;52.416;16.862;2023-02-15T04:37:18;113.17;;;84.03;;
6547;SDS011;3307;52.416;16.862;2023-02-15T04:39:43;118.27;;;82.53;;
6547;SDS011;3307;52.416;16.862;2023-02-15T04:42:08;110.40;;;80.80;;
6547;SDS011;3307;52.416;16.862;2023-02-15T04:44:34;109.37;;;78.37;;
6547;SDS011;3307;52.416;16.862;2023-02-15T04:46:59;105.47;;;77.17;;
6547;SDS011;3307;52.416;16.862;2023-02-15T04:49:25;105.60;;;75.40;;
6547;SDS011;3307;52.416;16.862;2023-02-15T04:51:50;107.30;;;76.97;;
6547;SDS011;3307;52.416;16.862;2023-02-15T04:54:16;102.37;;;73.87;;
6547;SDS011;3307;52.416;16.862;2023-02-15T04:56:41;107.40;;;77.30;;
6547;SDS011;3307;52.416;16.862;2023-02-15T04:59:09;108.43;;;77.63;;
6547;SDS011;3307;52.416;16.862;2023-02-15T05:01:35;100.20;;;72.88;;
6547;SDS011;3307;52.416;16.862;2023-02-15T05:04:01;104.57;;;73.93;;
6547;SDS011;3307;52.416;16.862;2023-02-15T05:06:26;101.90;;;77.00;;
6547;SDS011;3307;52.416;16.862;2023-02-15T05:08:52;106.03;;;76.20;;
6547;SDS011;3307;52.416;16.862;2023-02-15T05:11:17;106.13;;;78.00;;
6547;SDS011;3307;52.416;16.862;2023-02-15T05:13:42;103.25;;;76.03;;
6547;SDS011;3307;52.416;16.862;2023-02-15T05:16:08;102.13;;;71.63;;
6547;SDS011;3307;52.416;16.862;2023-02-15T05:18:33;105.23;;;74.43;;
6547;SDS011;3307;52.416;16.862;2023-02-15T05:20:59;98.80;;;74.00;;
6547;SDS011;3307;52.416;16.862;2023-02-15T05:23:24;106.68;;;76.43;;
6547;SDS011;3307;52.416;16.862;2023-02-15T05:25:50;111.93;;;79.17;;
6547;SDS011;3307;52.416;16.862;2023-02-15T05:28:35;119.28;;;83.57;;
6547;SDS011;3307;52.416;16.862;2023-02-15T05:31:03;105.20;;;76.60;;
6547;SDS011;3307;52.416;16.862;2023-02-15T05:33:28;106.50;;;72.17;;
6547;SDS011;3307;52.416;16.862;2023-02-15T05:35:54;98.60;;;69.80;;
6547;SDS011;3307;52.416;16.862;2023-02-15T05:38:19;101.63;;;72.13;;
6547;SDS011;3307;52.416;16.862;2023-02-15T05:40:45;101.20;;;72.50;;
6547;SDS011;3307;52.416;16.862;2023-02-15T05:43:10;109.90;;;76.30;;
6547;SDS011;3307;52.416;16.862;2023-02-15T05:45:36;95.03;;;71.13;;
6547;SDS011;3307;52.416;16.862;2023-02-15T05:48:01;104.73;;;73.20;;
6547;SDS011;3307;52.416;16.862;2023-02-15T05:50:27;96.63;;;70.73;;
6547;SDS011;3307;52.416;16.862;2023-02-15T05:52:52;102.03;;;73.57;;
6547;SDS011;3307;52.416;16.862;2023-02-15T05:55:20;103.05;;;75.13;;
6547;SDS011;3307;52.416;16.862;2023-02-15T05:57:45;103.33;;;74.40;;
6547;SDS011;3307;52.416;16.862;2023-02-15T06:00:11;108.50;;;73.20;;
6547;SDS011;3307;52.416;16.862;2023-02-15T06:02:38;102.85;;;76.07;;
6547;SDS011;3307;52.416;16.862;2023-02-15T06:05:05;99.63;;;74.78;;
6547;SDS011;3307;52.416;16.862;2023-02-15T06:07:31;96.00;;;72.47;;
6547;SDS011;3307;52.416;16.862;2023-02-15T06:09:56;92.13;;;69.80;;
6547;SDS011;3307;52.416;16.862;2023-02-15T06:12:22;106.00;;;73.70;;
6547;SDS011;3307;52.416;16.862;2023-02-15T06:14:47;99.55;;;69.45;;
6547;SDS011;3307;52.416;16.862;2023-02-15T06:17:13;90.73;;;67.63;;
6547;SDS011;3307;52.416;16.862;2023-02-15T06:19:38;96.60;;;67.73;;
6547;SDS011;3307;52.416;16.862;2023-02-15T06:22:04;96.30;;;70.10;;
6547;SDS011;3307;52.416;16.862;2023-02-15T06:24:31;95.00;;;69.45;;
6547;SDS011;3307;52.416;16.862;2023-02-15T06:26:56;101.43;;;73.55;;
6547;SDS011;3307;52.416;16.862;2023-02-15T06:29:22;103.53;;;73.40;;
6547;SDS011;3307;52.416;16.862;2023-02-15T06:31:47;106.20;;;74.10;;
6547;SDS011;3307;52.416;16.862;2023-02-15T06:34:13;99.90;;;73.20;;
6547;SDS011;3307;52.416;16.862;2023-02-15T06:36:38;101.13;;;75.90;;
6547;SDS011;3307;52.416;16.862;2023-02-15T06:39:03;101.80;;;73.77;;
6547;SDS011;3307;52.416;16.862;2023-02-15T06:41:29;102.50;;;74.70;;
6547;SDS011;3307;52.416;16.862;2023-02-15T06:43:55;99.47;;;71.40;;
6547;SDS011;3307;52.416;16.862;2023-02-15T06:46:20;93.43;;;69.00;;
6547;SDS011;3307;52.416;16.862;2023-02-15T06:48:46;99.85;;;72.13;;
6547;SDS011;3307;52.416;16.862;2023-02-15T06:51:11;95.30;;;69.95;;
6547;SDS011;3307;52.416;16.862;2023-02-15T06:53:37;90.53;;;67.40;;
6547;SDS011;3307;52.416;16.862;2023-02-15T06:56:03;95.47;;;69.30;;
6547;SDS011;3307;52.416;16.862;2023-02-15T06:58:32;96.75;;;69.20;;
6547;SDS011;3307;52.416;16.862;2023-02-15T07:00:58;92.45;;;68.03;;
6547;SDS011;3307;52.416;16.862;2023-02-15T07:03:24;98.20;;;70.83;;
6547;SDS011;3307;52.416;16.862;2023-02-15T07:05:53;95.97;;;68.60;;
6547;SDS011;3307;52.416;16.862;2023-02-15T07:08:20;97.63;;;69.68;;
6547;SDS011;3307;52.416;16.862;2023-02-15T07:10:46;90.67;;;67.90;;
6547;SDS011;3307;52.416;16.862;2023-02-15T07:13:11;97.33;;;67.07;;
6547;SDS011;3307;52.416;16.862;2023-02-15T07:15:37;86.65;;;67.18;;
6547;SDS011;3307;52.416;16.862;2023-02-15T07:18:02;89.93;;;65.77;;
6547;SDS011;3307;52.416;16.862;2023-02-15T07:20:28;86.27;;;64.63;;
6547;SDS011;3307;52.416;16.862;2023-02-15T07:22:54;85.50;;;64.10;;
6547;SDS011;3307;52.416;16.862;2023-02-15T07:25:19;91.47;;;65.43;;
6547;SDS011;3307;52.416;16.862;2023-02-15T07:27:45;90.28;;;65.07;;
6547;SDS011;3307;52.416;16.862;2023-02-15T07:30:11;86.63;;;63.27;;
6547;SDS011;3307;52.416;16.862;2023-02-15T07:32:38;85.65;;;63.75;;
6547;SDS011;3307;52.416;16.862;2023-02-15T07:35:24;91.10;;;67.80;;
6547;SDS011;3307;52.416;16.862;2023-02-15T07:37:50;88.00;;;66.22;;
6547;SDS011;3307;52.416;16.862;2023-02-15T07:40:15;98.60;;;67.00;;
6547;SDS011;3307;52.416;16.862;2023-02-15T07:42:41;89.70;;;68.80;;
6547;SDS011;3307;52.416;16.862;2023-02-15T07:45:06;92.77;;;69.10;;
6547;SDS011;3307;52.416;16.862;2023-02-15T07:47:32;87.30;;;67.47;;
6547;SDS011;3307;52.416;16.862;2023-02-15T07:49:57;90.60;;;66.27;;
6547;SDS011;3307;52.416;16.862;2023-02-15T07:52:23;87.00;;;64.47;;
6547;SDS011;3307;52.416;16.862;2023-02-15T07:54:48;82.90;;;63.30;;
6547;SDS011;3307;52.416;16.862;2023-02-15T07:57:14;85.13;;;64.13;;
6547;SDS011;3307;52.416;16.862;2023-02-15T07:59:39;86.43;;;63.83;;
6547;SDS011;3307;52.416;16.862;2023-02-15T08:14:19;79.60;;;59.50;;
6547;SDS011;3307;52.416;16.862;2023-02-15T08:16:49;76.70;;;59.30;;
6547;SDS011;3307;52.416;16.862;2023-02-15T08:21:42;72.25;;;58.20;;
6547;SDS011;3307;52.416;16.862;2023-02-15T08:24:10;81.05;;;59.25;;
6547;SDS011;3307;52.416;16.862;2023-02-15T08:26:36;78.22;;;59.08;;
6547;SDS011;3307;52.416;16.862;2023-02-15T08:29:03;74.22;;;57.13;;
6547;SDS011;3307;52.416;16.862;2023-02-15T08:31:29;77.45;;;57.40;;
6547;SDS011;3307;52.416;16.862;2023-02-15T08:33:55;71.40;;;56.20;;
6547;SDS011;3307;52.416;16.862;2023-02-15T08:36:23;69.47;;;53.70;;
6547;SDS011;3307;52.416;16.862;2023-02-15T08:38:49;72.38;;;54.35;;
6547;SDS011;3307;52.416;16.862;2023-02-15T08:41:19;65.00;;;53.00;;
6547;SDS011;3307;52.416;16.862;2023-02-15T08:44:06;69.05;;;54.38;;
6547;SDS011;3307;52.416;16.862;2023-02-15T09:16:00;53.58;;;44.78;;
6547;SDS011;3307;52.416;16.862;2023-02-15T09:18:27;56.65;;;44.92;;
6547;SDS011;3307;52.416;16.862;2023-02-15T09:20:55;56.05;;;44.17;;
6547;SDS011;3307;52.416;16.862;2023-02-15T09:23:20;58.43;;;45.93;;
6547;SDS011;3307;52.416;16.862;2023-02-15T09:25:45;52.43;;;43.37;;
6547;SDS011;3307;52.416;16.862;2023-02-15T09:28:11;52.50;;;42.50;;
6547;SDS011;3307;52.416;16.862;2023-02-15T09:30:37;52.10;;;42.22;;
6547;SDS011;3307;52.416;16.862;2023-02-15T09:33:02;51.97;;;41.90;;
6547;SDS011;3307;52.416;16.862;2023-02-15T09:35:28;51.70;;;40.43;;
6547;SDS011;3307;52.416;16.862;2023-02-15T09:37:53;53.27;;;42.13;;
6547;SDS011;3307;52.416;16.862;2023-02-15T09:40:18;51.03;;;40.03;;
6547;SDS011;3307;52.416;16.862;2023-02-15T09:45:25;52.17;;;39.25;;
6547;SDS011;3307;52.416;16.862;2023-02-15T10:01:59;49.10;;;39.30;;
6547;SDS011;3307;52.416;16.862;2023-02-15T10:04:42;48.50;;;37.80;;
6547;SDS011;3307;52.416;16.862;2023-02-15T10:07:53;48.30;;;38.50;;
6547;SDS011;3307;52.416;16.862;2023-02-15T10:13:30;45.20;;;36.03;;
6547;SDS011;3307;52.416;16.862;2023-02-15T10:22:09;47.58;;;37.30;;
6547;SDS011;3307;52.416;16.862;2023-02-15T10:25:00;48.22;;;36.10;;
6547;SDS011;3307;52.416;16.862;2023-02-15T10:27:37;48.72;;;36.25;;
6547;SDS011;3307;52.416;16.862;2023-02-15T10:30:12;51.95;;;38.03;;
6547;SDS011;3307;52.416;16.862;2023-02-15T10:38:36;50.50;;;38.45;;
6547;SDS011;3307;52.416;16.862;2023-02-15T10:46:39;47.92;;;36.40;;
6547;SDS011;3307;52.416;16.862;2023-02-15T10:52:26;45.00;;;35.25;;
6547;SDS011;3307;52.416;16.862;2023-02-15T10:55:18;45.65;;;35.42;;
6547;SDS011;3307;52.416;16.862;2023-02-15T11:00:50;47.55;;;36.47;;
6547;SDS011;3307;52.416;16.862;2023-02-15T11:03:40;47.35;;;36.40;;
6547;SDS011;3307;52.416;16.862;2023-02-15T11:06:08;49.30;;;37.97;;
6547;SDS011;3307;52.416;16.862;2023-02-15T11:08:38;51.40;;;37.20;;
6547;SDS011;3307;52.416;16.862;2023-02-15T11:11:07;45.17;;;36.15;;
6547;SDS011;3307;52.416;16.862;2023-02-15T11:13:44;44.63;;;35.42;;
6547;SDS011;3307;52.416;16.862;2023-02-15T11:16:22;49.05;;;37.55;;
6547;SDS011;3307;52.416;16.862;2023-02-15T11:21:31;51.08;;;38.38;;
6547;SDS011;3307;52.416;16.862;2023-02-15T11:23:59;46.85;;;35.90;;
6547;SDS011;3307;52.416;16.862;2023-02-15T11:26:40;44.17;;;35.55;;
6547;SDS011;3307;52.416;16.862;2023-02-15T11:29:12;43.05;;;34.80;;
6547;SDS011;3307;52.416;16.862;2023-02-15T11:31:49;48.10;;;36.03;;
6547;SDS011;3307;52.416;16.862;2023-02-15T11:34:27;46.78;;;35.92;;
6547;SDS011;3307;52.416;16.862;2023-02-15T11:36:58;47.40;;;36.45;;
6547;SDS011;3307;52.416;16.862;2023-02-15T11:39:35;49.60;;;38.28;;
6547;SDS011;3307;52.416;16.862;2023-02-15T11:42:02;46.75;;;36.97;;
6547;SDS011;3307;52.416;16.862;2023-02-15T11:44:35;50.30;;;38.88;;
6547;SDS011;3307;52.416;16.862;2023-02-15T11:47:21;49.33;;;37.17;;
6547;SDS011;3307;52.416;16.862;2023-02-15T11:49:47;47.72;;;37.53;;
6547;SDS011;3307;52.416;16.862;2023-02-15T11:52:13;51.53;;;39.03;;
6547;SDS011;3307;52.416;16.862;2023-02-15T11:54:41;54.15;;;39.10;;
6547;SDS011;3307;52.416;16.862;2023-02-15T11:57:26;48.65;;;37.08;;
6547;SDS011;3307;52.416;16.862;2023-02-15T12:00:06;46.55;;;36.30;;
6547;SDS011;3307;52.416;16.862;2023-02-15T12:02:38;49.17;;;39.03;;
6547;SDS011;3307;52.416;16.862;2023-02-15T12:05:12;49.50;;;38.67;;
6547;SDS011;3307;52.416;16.862;2023-02-15T12:07:41;50.58;;;38.95;;
6547;SDS011;3307;52.416;16.862;2023-02-15T12:10:30;50.22;;;39.00;;
6547;SDS011;3307;52.416;16.862;2023-02-15T12:15:33;45.23;;;36.77;;
6547;SDS011;3307;52.416;16.862;2023-02-15T12:18:00;44.25;;;36.28;;
6547;SDS011;3307;52.416;16.862;2023-02-15T12:20:28;45.65;;;36.67;;
6547;SDS011;3307;52.416;16.862;2023-02-15T12:22:59;46.90;;;37.60;;
6547;SDS011;3307;52.416;16.862;2023-02-15T12:28:53;44.53;;;36.45;;
6547;SDS011;3307;52.416;16.862;2023-02-15T12:31:33;47.35;;;37.97;;
6547;SDS011;3307;52.416;16.862;2023-02-15T12:34:02;42.72;;;35.25;;
6547;SDS011;3307;52.416;16.862;2023-02-15T12:36:38;40.20;;;35.25;;
6547;SDS011;3307;52.416;16.862;2023-02-15T12:41:46;45.83;;;37.90;;
6547;SDS011;3307;52.416;16.862;2023-02-15T12:44:25;41.50;;;36.53;;
6547;SDS011;3307;52.416;16.862;2023-02-15T12:49:44;38.63;;;34.42;;
6547;SDS011;3307;52.416;16.862;2023-02-15T12:54:45;41.75;;;36.20;;
6547;SDS011;3307;52.416;16.862;2023-02-15T12:57:25;41.33;;;35.78;;
6547;SDS011;3307;52.416;16.862;2023-02-15T12:59:54;40.10;;;35.80;;
6547;SDS011;3307;52.416;16.862;2023-02-15T13:02:23;42.35;;;37.85;;
6547;SDS011;3307;52.416;16.862;2023-02-15T13:04:52;42.00;;;37.40;;
6547;SDS011;3307;52.416;16.862;2023-02-15T13:07:18;43.25;;;38.58;;
6547;SDS011;3307;52.416;16.862;2023-02-15T13:09:44;42.90;;;38.20;;
6547;SDS011;3307;52.416;16.862;2023-02-15T13:12:18;43.53;;;39.13;;
6547;SDS011;3307;52.416;16.862;2023-02-15T13:14:46;43.58;;;39.03;;
6547;SDS011;3307;52.416;16.862;2023-02-15T13:17:16;42.45;;;38.10;;
6547;SDS011;3307;52.416;16.862;2023-02-15T13:19:49;41.83;;;37.47;;
6547;SDS011;3307;52.416;16.862;2023-02-15T13:22:19;43.70;;;39.10;;
6547;SDS011;3307;52.416;16.862;2023-02-15T13:24:57;42.78;;;38.28;;
6547;SDS011;3307;52.416;16.862;2023-02-15T13:27:24;43.00;;;38.40;;
6547;SDS011;3307;52.416;16.862;2023-02-15T13:29:55;44.28;;;39.58;;
6547;SDS011;3307;52.416;16.862;2023-02-15T13:34:53;42.35;;;37.85;;
6547;SDS011;3307;52.416;16.862;2023-02-15T13:40:25;44.95;;;40.15;;
6547;SDS011;3307;52.416;16.862;2023-02-15T13:56:06;45.35;;;40.47;;
6547;SDS011;3307;52.416;16.862;2023-02-15T14:01:31;48.90;;;40.63;;
6547;SDS011;3307;52.416;16.862;2023-02-15T14:07:12;44.65;;;39.40;;
6547;SDS011;3307;52.416;16.862;2023-02-15T14:32:08;46.38;;;38.47;;
6547;SDS011;3307;52.416;16.862;2023-02-15T14:37:02;45.40;;;37.20;;
6547;SDS011;3307;52.416;16.862;2023-02-15T14:39:36;47.20;;;37.80;;
6547;SDS011;3307;52.416;16.862;2023-02-15T14:42:34;47.08;;;38.95;;
6547;SDS011;3307;52.416;16.862;2023-02-15T14:54:07;45.28;;;35.92;;
6547;SDS011;3307;52.416;16.862;2023-02-15T14:56:33;41.75;;;34.90;;
6547;SDS011;3307;52.416;16.862;2023-02-15T14:59:59;43.70;;;34.70;;
6547;SDS011;3307;52.416;16.862;2023-02-15T15:07:22;44.78;;;35.40;;
6547;SDS011;3307;52.416;16.862;2023-02-15T15:09:58;44.22;;;35.08;;
6547;SDS011;3307;52.416;16.862;2023-02-15T15:12:41;45.58;;;35.55;;
6547;SDS011;3307;52.416;16.862;2023-02-15T15:15:11;46.33;;;36.60;;
6547;SDS011;3307;52.416;16.862;2023-02-15T15:20:11;46.00;;;34.67;;
6547;SDS011;3307;52.416;16.862;2023-02-15T15:22:38;45.03;;;34.78;;
6547;SDS011;3307;52.416;16.862;2023-02-15T15:25:10;43.08;;;35.38;;
6547;SDS011;3307;52.416;16.862;2023-02-15T15:46:24;56.63;;;42.85;;
6547;SDS011;3307;52.416;16.862;2023-02-15T15:49:05;56.03;;;42.28;;
6547;SDS011;3307;52.416;16.862;2023-02-15T15:51:34;54.95;;;41.15;;
6547;SDS011;3307;52.416;16.862;2023-02-15T15:54:01;53.13;;;41.88;;
6547;SDS011;3307;52.416;16.862;2023-02-15T15:56:28;55.75;;;41.42;;
6547;SDS011;3307;52.416;16.862;2023-02-15T15:59:06;55.83;;;42.67;;
6547;SDS011;3307;52.416;16.862;2023-02-15T16:01:38;57.75;;;45.63;;
6547;SDS011;3307;52.416;16.862;2023-02-15T16:04:10;59.83;;;48.53;;
6547;SDS011;3307;52.416;16.862;2023-02-15T16:06:38;58.55;;;44.40;;
6547;SDS011;3307;52.416;16.862;2023-02-15T16:11:36;60.55;;;46.40;;
6547;SDS011;3307;52.416;16.862;2023-02-15T16:14:09;56.88;;;42.38;;
6547;SDS011;3307;52.416;16.862;2023-02-15T16:16:37;54.33;;;42.38;;
6547;SDS011;3307;52.416;16.862;2023-02-15T16:19:02;54.50;;;41.63;;
6547;SDS011;3307;52.416;16.862;2023-02-15T16:21:32;55.10;;;43.53;;
6547;SDS011;3307;52.416;16.862;2023-02-15T16:24:22;57.78;;;43.20;;
6547;SDS011;3307;52.416;16.862;2023-02-15T16:29:48;63.50;;;50.42;;
6547;SDS011;3307;52.416;16.862;2023-02-15T16:34:59;67.20;;;50.90;;
6547;SDS011;3307;52.416;16.862;2023-02-15T16:37:27;61.40;;;45.53;;
6547;SDS011;3307;52.416;16.862;2023-02-15T16:39:56;62.92;;;46.63;;
6547;SDS011;3307;52.416;16.862;2023-02-15T16:42:22;62.73;;;48.70;;
6547;SDS011;3307;52.416;16.862;2023-02-15T16:44:50;69.57;;;51.70;;
6547;SDS011;3307;52.416;16.862;2023-02-15T16:47:38;75.27;;;54.07;;
6547;SDS011;3307;52.416;16.862;2023-02-15T16:50:06;73.45;;;55.90;;
6547;SDS011;3307;52.416;16.862;2023-02-15T16:52:32;75.78;;;57.15;;
6547;SDS011;3307;52.416;16.862;2023-02-15T16:54:58;76.00;;;57.43;;
6547;SDS011;3307;52.416;16.862;2023-02-15T16:57:35;76.38;;;55.15;;
6547;SDS011;3307;52.416;16.862;2023-02-15T17:00:16;69.97;;;52.33;;
6547;SDS011;3307;52.416;16.862;2023-02-15T17:02:52;69.43;;;50.65;;
6547;SDS011;3307;52.416;16.862;2023-02-15T17:05:29;76.53;;;53.90;;
6547;SDS011;3307;52.416;16.862;2023-02-15T17:08:05;71.63;;;52.75;;
6547;SDS011;3307;52.416;16.862;2023-02-15T17:10:39;66.53;;;51.33;;
6547;SDS011;3307;52.416;16.862;2023-02-15T17:13:11;71.18;;;51.78;;
6547;SDS011;3307;52.416;16.862;2023-02-15T17:16:08;73.00;;;56.33;;
6547;SDS011;3307;52.416;16.862;2023-02-15T17:18:25;75.90;;;57.75;;
6547;SDS011;3307;52.416;16.862;2023-02-15T17:20:57;84.53;;;61.78;;
6547;SDS011;3307;52.416;16.862;2023-02-15T17:25:58;87.15;;;64.25;;
6547;SDS011;3307;52.416;16.862;2023-02-15T17:28:27;87.77;;;64.10;;
6547;SDS011;3307;52.416;16.862;2023-02-15T17:30:53;85.55;;;63.63;;
6547;SDS011;3307;52.416;16.862;2023-02-15T17:33:24;86.57;;;63.50;;
6547;SDS011;3307;52.416;16.862;2023-02-15T17:36:04;82.53;;;62.40;;
6547;SDS011;3307;52.416;16.862;2023-02-15T17:38:31;90.50;;;64.57;;
6547;SDS011;3307;52.416;16.862;2023-02-15T17:40:57;85.78;;;64.53;;
6547;SDS011;3307;52.416;16.862;2023-02-15T17:43:23;84.53;;;62.05;;
6547;SDS011;3307;52.416;16.862;2023-02-15T17:45:50;83.82;;;60.65;;
6547;SDS011;3307;52.416;16.862;2023-02-15T17:48:37;82.72;;;60.78;;
6547;SDS011;3307;52.416;16.862;2023-02-15T17:51:03;83.68;;;61.65;;
6547;SDS011;3307;52.416;16.862;2023-02-15T17:53:30;92.40;;;69.35;;
6547;SDS011;3307;52.416;16.862;2023-02-15T17:55:55;100.28;;;76.57;;
6547;SDS011;3307;52.416;16.862;2023-02-15T17:58:21;121.40;;;91.20;;
6547;SDS011;3307;52.416;16.862;2023-02-15T18:00:51;230.50;;;165.73;;
6547;SDS011;3307;52.416;16.862;2023-02-15T18:03:46;219.32;;;166.30;;
6547;SDS011;3307;52.416;16.862;2023-02-15T18:06:31;193.10;;;148.20;;
6547;SDS011;3307;52.416;16.862;2023-02-15T18:09:17;138.77;;;105.90;;
6547;SDS011;3307;52.416;16.862;2023-02-15T18:12:04;106.20;;;77.82;;
6547;SDS011;3307;52.416;16.862;2023-02-15T18:14:44;101.22;;;72.93;;
6547;SDS011;3307;52.416;16.862;2023-02-15T18:17:13;101.90;;;74.97;;
6547;SDS011;3307;52.416;16.862;2023-02-15T18:19:39;106.72;;;79.32;;
6547;SDS011;3307;52.416;16.862;2023-02-15T18:22:13;140.47;;;98.60;;
6547;SDS011;3307;52.416;16.862;2023-02-15T18:24:41;112.28;;;83.15;;
6547;SDS011;3307;52.416;16.862;2023-02-15T18:27:09;114.53;;;81.90;;
6547;SDS011;3307;52.416;16.862;2023-02-15T18:29:38;116.70;;;87.22;;
6547;SDS011;3307;52.416;16.862;2023-02-15T18:32:06;208.20;;;155.53;;
6547;SDS011;3307;52.416;16.862;2023-02-15T18:34:37;213.13;;;161.45;;
6547;SDS011;3307;52.416;16.862;2023-02-15T18:37:04;174.52;;;130.95;;
6547;SDS011;3307;52.416;16.862;2023-02-15T18:42:04;230.18;;;172.18;;
6547;SDS011;3307;52.416;16.862;2023-02-15T18:44:42;339.33;;;257.60;;
6547;SDS011;3307;52.416;16.862;2023-02-15T18:47:07;235.15;;;170.77;;